Franklin Square, New York
Current Conditions -  °F | °C
As of 1:51 PM on Friday 31 Oct 2014 (Local Time) from KJFK Reporting Station
Overcast Overcast  
Wind Chill: 55°   Ceiling: 5000
Heat Index: 55°   Visibility: 10mi
Dew Point: 37°   Wind: 8mph
Humidity: 51%   Direction: 30°NNE
Pressure: 29.93"   Gusts: NA
Location:  40.71°N, 73.68°W
Report Text: KJFK 311751Z 03007KT 10SM FEW025 SCT037 BKN050 OVC190 13/03 A2993 RMK AO2 SLP135 T01280028 10128 20089 58022
Loading
Personal Weather Stations






























Interactive Weather Map
Tropical Storm Tracking
New forecast layout! Learn more

10-Day Weather Forecast

Advertisements
Track Severe Weather on mobile